sensor_id;sensor_type;location;lat;lon;timestamp;P1;durP1;ratioP1;P2;durP2;ratioP2
51556;SDS011;38766;53.194;5.532;2023-07-29T00:02:11;9.57;;;4.60;;
51556;SDS011;38766;53.194;5.532;2023-07-29T00:04:37;11.15;;;4.88;;
51556;SDS011;38766;53.194;5.532;2023-07-29T00:07:02;8.18;;;4.50;;
51556;SDS011;38766;53.194;5.532;2023-07-29T00:09:28;9.23;;;4.32;;
51556;SDS011;38766;53.194;5.532;2023-07-29T00:11:54;12.55;;;3.95;;
51556;SDS011;38766;53.194;5.532;2023-07-29T00:14:19;7.30;;;4.40;;
51556;SDS011;38766;53.194;5.532;2023-07-29T00:16:45;8.73;;;4.43;;
51556;SDS011;38766;53.194;5.532;2023-07-29T00:19:10;6.68;;;4.50;;
51556;SDS011;38766;53.194;5.532;2023-07-29T00:21:36;8.23;;;4.70;;
51556;SDS011;38766;53.194;5.532;2023-07-29T00:24:05;9.90;;;5.05;;
51556;SDS011;38766;53.194;5.532;2023-07-29T00:26:30;11.82;;;4.97;;
51556;SDS011;38766;53.194;5.532;2023-07-29T00:28:57;9.05;;;5.22;;
51556;SDS011;38766;53.194;5.532;2023-07-29T00:31:23;8.55;;;5.18;;
51556;SDS011;38766;53.194;5.532;2023-07-29T00:33:48;9.98;;;5.40;;
51556;SDS011;38766;53.194;5.532;2023-07-29T00:36:14;7.55;;;5.18;;
51556;SDS011;38766;53.194;5.532;2023-07-29T00:38:39;8.98;;;5.38;;
51556;SDS011;38766;53.194;5.532;2023-07-29T00:41:05;10.73;;;5.20;;
51556;SDS011;38766;53.194;5.532;2023-07-29T00:43:31;7.88;;;4.80;;
51556;SDS011;38766;53.194;5.532;2023-07-29T00:45:57;7.90;;;5.20;;
51556;SDS011;38766;53.194;5.532;2023-07-29T00:48:24;7.40;;;4.75;;
51556;SDS011;38766;53.194;5.532;2023-07-29T00:50:50;13.52;;;4.97;;
51556;SDS011;38766;53.194;5.532;2023-07-29T00:53:16;7.80;;;4.47;;
51556;SDS011;38766;53.194;5.532;2023-07-29T00:55:42;10.88;;;5.25;;
51556;SDS011;38766;53.194;5.532;2023-07-29T00:58:09;7.45;;;4.70;;
51556;SDS011;38766;53.194;5.532;2023-07-29T01:00:35;8.55;;;5.32;;
51556;SDS011;38766;53.194;5.532;2023-07-29T01:03:02;8.95;;;5.20;;
51556;SDS011;38766;53.194;5.532;2023-07-29T01:05:30;8.45;;;5.32;;
51556;SDS011;38766;53.194;5.532;2023-07-29T01:10:40;8.75;;;4.95;;
51556;SDS011;38766;53.194;5.532;2023-07-29T01:13:22;9.45;;;5.07;;
51556;SDS011;38766;53.194;5.532;2023-07-29T01:15:59;10.65;;;5.57;;
51556;SDS011;38766;53.194;5.532;2023-07-29T01:18:30;8.75;;;5.07;;
51556;SDS011;38766;53.194;5.532;2023-07-29T01:20:58;9.43;;;5.13;;
51556;SDS011;38766;53.194;5.532;2023-07-29T01:23:25;9.48;;;5.78;;
51556;SDS011;38766;53.194;5.532;2023-07-29T01:25:54;10.13;;;5.28;;
51556;SDS011;38766;53.194;5.532;2023-07-29T01:28:23;11.98;;;6.07;;
51556;SDS011;38766;53.194;5.532;2023-07-29T01:30:49;12.35;;;6.10;;
51556;SDS011;38766;53.194;5.532;2023-07-29T01:33:26;10.25;;;5.43;;
51556;SDS011;38766;53.194;5.532;2023-07-29T01:35:57;14.85;;;6.07;;
51556;SDS011;38766;53.194;5.532;2023-07-29T01:38:33;10.98;;;5.75;;
51556;SDS011;38766;53.194;5.532;2023-07-29T01:41:07;8.98;;;5.60;;
51556;SDS011;38766;53.194;5.532;2023-07-29T01:43:33;14.15;;;6.50;;
51556;SDS011;38766;53.194;5.532;2023-07-29T01:46:04;13.55;;;6.25;;
51556;SDS011;38766;53.194;5.532;2023-07-29T01:48:30;10.77;;;5.55;;
51556;SDS011;38766;53.194;5.532;2023-07-29T01:50:57;12.15;;;5.85;;
51556;SDS011;38766;53.194;5.532;2023-07-29T01:53:22;13.68;;;5.32;;
51556;SDS011;38766;53.194;5.532;2023-07-29T01:55:48;9.07;;;5.55;;
51556;SDS011;38766;53.194;5.532;2023-07-29T01:58:14;12.25;;;5.00;;
51556;SDS011;38766;53.194;5.532;2023-07-29T02:00:40;14.27;;;4.90;;
51556;SDS011;38766;53.194;5.532;2023-07-29T02:03:05;12.32;;;4.90;;
51556;SDS011;38766;53.194;5.532;2023-07-29T02:05:31;11.02;;;4.60;;
51556;SDS011;38766;53.194;5.532;2023-07-29T02:07:57;10.50;;;4.65;;
51556;SDS011;38766;53.194;5.532;2023-07-29T02:10:22;9.45;;;4.65;;
51556;SDS011;38766;53.194;5.532;2023-07-29T02:12:48;11.48;;;4.53;;
51556;SDS011;38766;53.194;5.532;2023-07-29T02:15:14;9.40;;;4.47;;
51556;SDS011;38766;53.194;5.532;2023-07-29T02:17:42;10.23;;;4.03;;
51556;SDS011;38766;53.194;5.532;2023-07-29T02:20:08;9.30;;;3.72;;
51556;SDS011;38766;53.194;5.532;2023-07-29T02:22:35;8.98;;;4.13;;
51556;SDS011;38766;53.194;5.532;2023-07-29T02:25:01;9.02;;;3.97;;
51556;SDS011;38766;53.194;5.532;2023-07-29T02:27:27;9.48;;;3.88;;
51556;SDS011;38766;53.194;5.532;2023-07-29T02:29:53;12.07;;;3.58;;
51556;SDS011;38766;53.194;5.532;2023-07-29T02:32:19;7.00;;;3.78;;
51556;SDS011;38766;53.194;5.532;2023-07-29T02:34:45;7.05;;;4.03;;
51556;SDS011;38766;53.194;5.532;2023-07-29T02:37:11;10.93;;;4.07;;
51556;SDS011;38766;53.194;5.532;2023-07-29T02:39:37;10.57;;;4.20;;
51556;SDS011;38766;53.194;5.532;2023-07-29T02:42:02;13.10;;;3.67;;
51556;SDS011;38766;53.194;5.532;2023-07-29T02:44:28;9.98;;;3.20;;
51556;SDS011;38766;53.194;5.532;2023-07-29T02:46:54;8.65;;;3.47;;
51556;SDS011;38766;53.194;5.532;2023-07-29T02:49:21;10.52;;;3.80;;
51556;SDS011;38766;53.194;5.532;2023-07-29T02:51:48;12.77;;;3.50;;
51556;SDS011;38766;53.194;5.532;2023-07-29T02:54:15;11.05;;;3.60;;
51556;SDS011;38766;53.194;5.532;2023-07-29T02:56:41;5.60;;;3.25;;
51556;SDS011;38766;53.194;5.532;2023-07-29T02:59:07;8.65;;;3.13;;
51556;SDS011;38766;53.194;5.532;2023-07-29T03:01:32;8.00;;;3.30;;
51556;SDS011;38766;53.194;5.532;2023-07-29T03:03:59;7.97;;;3.00;;
51556;SDS011;38766;53.194;5.532;2023-07-29T03:06:25;7.28;;;3.35;;
51556;SDS011;38766;53.194;5.532;2023-07-29T03:08:50;9.73;;;3.10;;
51556;SDS011;38766;53.194;5.532;2023-07-29T03:11:16;10.82;;;2.80;;
51556;SDS011;38766;53.194;5.532;2023-07-29T03:13:42;9.73;;;3.05;;
51556;SDS011;38766;53.194;5.532;2023-07-29T03:16:09;6.90;;;2.42;;
51556;SDS011;38766;53.194;5.532;2023-07-29T03:18:36;6.63;;;3.28;;
51556;SDS011;38766;53.194;5.532;2023-07-29T03:21:02;6.22;;;2.50;;
51556;SDS011;38766;53.194;5.532;2023-07-29T03:23:28;6.57;;;2.67;;
51556;SDS011;38766;53.194;5.532;2023-07-29T03:25:55;5.35;;;2.60;;
51556;SDS011;38766;53.194;5.532;2023-07-29T03:28:23;8.68;;;3.03;;
51556;SDS011;38766;53.194;5.532;2023-07-29T03:30:50;5.38;;;3.13;;
51556;SDS011;38766;53.194;5.532;2023-07-29T03:33:16;11.98;;;3.22;;
51556;SDS011;38766;53.194;5.532;2023-07-29T03:35:41;7.30;;;2.88;;
51556;SDS011;38766;53.194;5.532;2023-07-29T03:38:18;6.60;;;2.88;;
51556;SDS011;38766;53.194;5.532;2023-07-29T03:40:44;7.45;;;3.00;;
51556;SDS011;38766;53.194;5.532;2023-07-29T03:43:10;10.82;;;3.47;;
51556;SDS011;38766;53.194;5.532;2023-07-29T03:45:36;6.18;;;2.75;;
51556;SDS011;38766;53.194;5.532;2023-07-29T03:48:03;7.15;;;3.00;;
51556;SDS011;38766;53.194;5.532;2023-07-29T03:50:29;8.98;;;3.38;;
51556;SDS011;38766;53.194;5.532;2023-07-29T03:52:55;6.55;;;3.15;;
51556;SDS011;38766;53.194;5.532;2023-07-29T03:55:22;4.90;;;3.10;;
51556;SDS011;38766;53.194;5.532;2023-07-29T03:57:48;10.57;;;3.00;;
51556;SDS011;38766;53.194;5.532;2023-07-29T04:00:13;5.57;;;3.40;;
51556;SDS011;38766;53.194;5.532;2023-07-29T04:02:40;9.00;;;3.15;;
51556;SDS011;38766;53.194;5.532;2023-07-29T04:05:10;6.93;;;2.92;;
51556;SDS011;38766;53.194;5.532;2023-07-29T04:07:36;6.65;;;3.03;;
51556;SDS011;38766;53.194;5.532;2023-07-29T04:10:02;8.27;;;3.20;;
51556;SDS011;38766;53.194;5.532;2023-07-29T04:12:29;8.02;;;3.00;;
51556;SDS011;38766;53.194;5.532;2023-07-29T04:14:55;7.65;;;3.08;;
51556;SDS011;38766;53.194;5.532;2023-07-29T04:17:21;7.55;;;2.80;;
51556;SDS011;38766;53.194;5.532;2023-07-29T04:19:47;10.07;;;3.25;;
51556;SDS011;38766;53.194;5.532;2023-07-29T04:22:13;3.97;;;2.83;;
51556;SDS011;38766;53.194;5.532;2023-07-29T04:24:40;7.30;;;3.53;;
51556;SDS011;38766;53.194;5.532;2023-07-29T04:27:06;7.95;;;3.15;;
51556;SDS011;38766;53.194;5.532;2023-07-29T04:29:31;8.82;;;3.40;;
51556;SDS011;38766;53.194;5.532;2023-07-29T04:31:57;8.52;;;3.45;;
51556;SDS011;38766;53.194;5.532;2023-07-29T04:34:23;11.52;;;3.50;;
51556;SDS011;38766;53.194;5.532;2023-07-29T04:36:48;5.00;;;3.22;;
51556;SDS011;38766;53.194;5.532;2023-07-29T04:39:14;7.13;;;3.47;;
51556;SDS011;38766;53.194;5.532;2023-07-29T04:41:40;9.43;;;3.33;;
51556;SDS011;38766;53.194;5.532;2023-07-29T04:44:06;7.63;;;2.75;;
51556;SDS011;38766;53.194;5.532;2023-07-29T04:46:35;7.00;;;3.30;;
51556;SDS011;38766;53.194;5.532;2023-07-29T04:49:01;7.82;;;3.10;;
51556;SDS011;38766;53.194;5.532;2023-07-29T04:51:27;8.50;;;3.00;;
51556;SDS011;38766;53.194;5.532;2023-07-29T04:53:53;7.63;;;3.08;;
51556;SDS011;38766;53.194;5.532;2023-07-29T04:56:19;6.82;;;2.78;;
51556;SDS011;38766;53.194;5.532;2023-07-29T04:58:45;8.38;;;3.60;;
51556;SDS011;38766;53.194;5.532;2023-07-29T05:01:11;7.55;;;3.17;;
51556;SDS011;38766;53.194;5.532;2023-07-29T05:03:36;8.40;;;3.20;;
51556;SDS011;38766;53.194;5.532;2023-07-29T05:06:04;9.52;;;3.50;;
51556;SDS011;38766;53.194;5.532;2023-07-29T05:08:30;6.38;;;3.25;;
51556;SDS011;38766;53.194;5.532;2023-07-29T05:10:56;10.27;;;3.85;;
51556;SDS011;38766;53.194;5.532;2023-07-29T05:13:22;7.78;;;3.00;;
51556;SDS011;38766;53.194;5.532;2023-07-29T05:15:48;8.98;;;3.42;;
51556;SDS011;38766;53.194;5.532;2023-07-29T05:18:14;8.20;;;3.63;;
51556;SDS011;38766;53.194;5.532;2023-07-29T05:20:40;8.73;;;3.42;;
51556;SDS011;38766;53.194;5.532;2023-07-29T05:23:06;9.82;;;3.95;;
51556;SDS011;38766;53.194;5.532;2023-07-29T05:25:32;8.77;;;3.45;;
51556;SDS011;38766;53.194;5.532;2023-07-29T05:27:59;8.52;;;3.88;;
51556;SDS011;38766;53.194;5.532;2023-07-29T05:30:29;11.18;;;3.88;;
51556;SDS011;38766;53.194;5.532;2023-07-29T05:32:59;9.60;;;3.72;;
51556;SDS011;38766;53.194;5.532;2023-07-29T05:35:29;7.85;;;3.45;;
51556;SDS011;38766;53.194;5.532;2023-07-29T05:37:55;11.35;;;4.28;;
51556;SDS011;38766;53.194;5.532;2023-07-29T05:40:20;12.52;;;3.67;;
51556;SDS011;38766;53.194;5.532;2023-07-29T05:42:46;11.73;;;3.67;;
51556;SDS011;38766;53.194;5.532;2023-07-29T05:45:12;14.73;;;3.75;;
51556;SDS011;38766;53.194;5.532;2023-07-29T05:47:38;8.10;;;3.25;;
51556;SDS011;38766;53.194;5.532;2023-07-29T05:50:07;8.27;;;3.70;;
51556;SDS011;38766;53.194;5.532;2023-07-29T05:52:33;11.60;;;3.50;;
51556;SDS011;38766;53.194;5.532;2023-07-29T05:54:59;10.43;;;3.75;;
51556;SDS011;38766;53.194;5.532;2023-07-29T05:57:25;11.40;;;3.72;;
51556;SDS011;38766;53.194;5.532;2023-07-29T05:59:51;11.65;;;3.63;;
51556;SDS011;38766;53.194;5.532;2023-07-29T06:02:16;9.27;;;3.50;;
51556;SDS011;38766;53.194;5.532;2023-07-29T06:04:42;8.77;;;3.35;;
51556;SDS011;38766;53.194;5.532;2023-07-29T06:07:07;11.55;;;3.55;;
51556;SDS011;38766;53.194;5.532;2023-07-29T06:09:33;9.88;;;3.53;;
51556;SDS011;38766;53.194;5.532;2023-07-29T06:11:59;11.30;;;3.75;;
51556;SDS011;38766;53.194;5.532;2023-07-29T06:14:24;14.93;;;3.58;;
51556;SDS011;38766;53.194;5.532;2023-07-29T06:16:50;10.02;;;4.05;;
51556;SDS011;38766;53.194;5.532;2023-07-29T06:19:16;10.35;;;3.70;;
51556;SDS011;38766;53.194;5.532;2023-07-29T06:21:42;15.35;;;3.35;;
51556;SDS011;38766;53.194;5.532;2023-07-29T06:24:09;11.00;;;4.07;;
51556;SDS011;38766;53.194;5.532;2023-07-29T06:26:34;9.63;;;3.78;;
51556;SDS011;38766;53.194;5.532;2023-07-29T06:29:03;11.68;;;3.30;;
51556;SDS011;38766;53.194;5.532;2023-07-29T06:31:28;11.95;;;4.25;;
51556;SDS011;38766;53.194;5.532;2023-07-29T06:33:54;12.45;;;3.22;;
51556;SDS011;38766;53.194;5.532;2023-07-29T06:36:20;13.57;;;3.15;;
51556;SDS011;38766;53.194;5.532;2023-07-29T06:38:46;7.20;;;3.58;;
51556;SDS011;38766;53.194;5.532;2023-07-29T06:41:12;13.95;;;3.92;;
51556;SDS011;38766;53.194;5.532;2023-07-29T06:43:38;8.20;;;3.10;;
51556;SDS011;38766;53.194;5.532;2023-07-29T06:46:03;10.48;;;3.40;;
51556;SDS011;38766;53.194;5.532;2023-07-29T06:48:29;8.57;;;3.17;;
51556;SDS011;38766;53.194;5.532;2023-07-29T06:50:54;8.90;;;3.30;;
51556;SDS011;38766;53.194;5.532;2023-07-29T06:53:21;8.35;;;3.38;;
51556;SDS011;38766;53.194;5.532;2023-07-29T06:55:46;7.35;;;3.00;;
51556;SDS011;38766;53.194;5.532;2023-07-29T06:58:12;10.65;;;3.10;;
51556;SDS011;38766;53.194;5.532;2023-07-29T07:00:38;7.95;;;3.30;;
51556;SDS011;38766;53.194;5.532;2023-07-29T07:03:03;11.82;;;3.20;;
51556;SDS011;38766;53.194;5.532;2023-07-29T07:05:31;11.20;;;3.15;;
51556;SDS011;38766;53.194;5.532;2023-07-29T07:07:57;6.93;;;2.80;;
51556;SDS011;38766;53.194;5.532;2023-07-29T07:10:23;9.63;;;3.20;;
51556;SDS011;38766;53.194;5.532;2023-07-29T07:12:48;9.55;;;2.78;;
51556;SDS011;38766;53.194;5.532;2023-07-29T07:15:14;9.93;;;2.78;;
51556;SDS011;38766;53.194;5.532;2023-07-29T07:17:40;6.35;;;2.65;;
51556;SDS011;38766;53.194;5.532;2023-07-29T07:20:06;5.05;;;2.30;;
51556;SDS011;38766;53.194;5.532;2023-07-29T07:22:32;7.72;;;2.60;;
51556;SDS011;38766;53.194;5.532;2023-07-29T07:24:58;10.00;;;2.40;;
51556;SDS011;38766;53.194;5.532;2023-07-29T07:27:23;8.77;;;2.70;;
51556;SDS011;38766;53.194;5.532;2023-07-29T07:29:49;6.25;;;2.60;;
51556;SDS011;38766;53.194;5.532;2023-07-29T07:32:18;4.35;;;2.50;;
51556;SDS011;38766;53.194;5.532;2023-07-29T07:34:43;7.05;;;2.55;;
51556;SDS011;38766;53.194;5.532;2023-07-29T07:37:09;6.22;;;2.70;;
51556;SDS011;38766;53.194;5.532;2023-07-29T07:39:34;6.53;;;2.58;;
51556;SDS011;38766;53.194;5.532;2023-07-29T07:42:00;5.82;;;2.70;;
51556;SDS011;38766;53.194;5.532;2023-07-29T07:44:26;7.72;;;2.60;;
51556;SDS011;38766;53.194;5.532;2023-07-29T07:46:52;10.55;;;2.47;;
51556;SDS011;38766;53.194;5.532;2023-07-29T07:49:21;9.43;;;2.33;;
51556;SDS011;38766;53.194;5.532;2023-07-29T07:51:48;5.32;;;2.50;;
51556;SDS011;38766;53.194;5.532;2023-07-29T07:54:13;5.85;;;2.53;;
51556;SDS011;38766;53.194;5.532;2023-07-29T07:56:39;6.63;;;2.72;;
51556;SDS011;38766;53.194;5.532;2023-07-29T07:59:05;7.35;;;2.55;;
51556;SDS011;38766;53.194;5.532;2023-07-29T08:01:34;7.05;;;3.00;;
51556;SDS011;38766;53.194;5.532;2023-07-29T08:04:01;7.63;;;2.60;;
51556;SDS011;38766;53.194;5.532;2023-07-29T08:06:26;6.32;;;2.58;;
51556;SDS011;38766;53.194;5.532;2023-07-29T08:08:52;5.38;;;2.20;;
51556;SDS011;38766;53.194;5.532;2023-07-29T08:11:17;5.10;;;2.40;;
51556;SDS011;38766;53.194;5.532;2023-07-29T08:13:43;5.88;;;2.72;;
51556;SDS011;38766;53.194;5.532;2023-07-29T08:16:09;5.40;;;2.33;;
51556;SDS011;38766;53.194;5.532;2023-07-29T08:18:34;8.55;;;2.85;;
51556;SDS011;38766;53.194;5.532;2023-07-29T08:21:00;8.98;;;2.50;;
51556;SDS011;38766;53.194;5.532;2023-07-29T08:23:29;6.20;;;2.40;;
51556;SDS011;38766;53.194;5.532;2023-07-29T08:25:59;5.90;;;2.50;;
51556;SDS011;38766;53.194;5.532;2023-07-29T08:28:27;5.50;;;2.35;;
51556;SDS011;38766;53.194;5.532;2023-07-29T08:30:57;6.05;;;3.08;;
51556;SDS011;38766;53.194;5.532;2023-07-29T08:33:23;7.70;;;2.30;;
51556;SDS011;38766;53.194;5.532;2023-07-29T08:35:49;6.07;;;2.60;;
51556;SDS011;38766;53.194;5.532;2023-07-29T08:38:14;5.70;;;2.65;;
51556;SDS011;38766;53.194;5.532;2023-07-29T08:40:42;7.13;;;2.30;;
51556;SDS011;38766;53.194;5.532;2023-07-29T08:43:10;7.15;;;2.10;;
51556;SDS011;38766;53.194;5.532;2023-07-29T08:45:39;5.47;;;2.33;;
51556;SDS011;38766;53.194;5.532;2023-07-29T08:48:08;4.97;;;2.30;;
51556;SDS011;38766;53.194;5.532;2023-07-29T08:50:36;5.40;;;2.25;;
51556;SDS011;38766;53.194;5.532;2023-07-29T08:53:05;10.30;;;2.38;;
51556;SDS011;38766;53.194;5.532;2023-07-29T08:55:31;5.60;;;2.20;;
51556;SDS011;38766;53.194;5.532;2023-07-29T08:58:00;7.47;;;2.33;;
51556;SDS011;38766;53.194;5.532;2023-07-29T09:00:27;7.68;;;2.25;;
51556;SDS011;38766;53.194;5.532;2023-07-29T09:02:53;5.22;;;2.17;;
51556;SDS011;38766;53.194;5.532;2023-07-29T09:05:20;5.57;;;1.90;;
51556;SDS011;38766;53.194;5.532;2023-07-29T09:07:46;5.63;;;2.05;;
51556;SDS011;38766;53.194;5.532;2023-07-29T09:10:15;3.55;;;2.10;;
51556;SDS011;38766;53.194;5.532;2023-07-29T09:12:40;5.15;;;2.00;;
51556;SDS011;38766;53.194;5.532;2023-07-29T09:15:07;6.07;;;2.33;;
51556;SDS011;38766;53.194;5.532;2023-07-29T09:17:33;7.32;;;2.20;;
51556;SDS011;38766;53.194;5.532;2023-07-29T09:19:59;8.23;;;2.58;;
51556;SDS011;38766;53.194;5.532;2023-07-29T09:22:25;5.30;;;2.20;;
51556;SDS011;38766;53.194;5.532;2023-07-29T09:24:52;5.50;;;1.83;;
51556;SDS011;38766;53.194;5.532;2023-07-29T09:27:25;4.75;;;2.38;;
51556;SDS011;38766;53.194;5.532;2023-07-29T09:29:56;4.90;;;1.90;;
51556;SDS011;38766;53.194;5.532;2023-07-29T09:32:23;3.58;;;1.80;;
51556;SDS011;38766;53.194;5.532;2023-07-29T09:34:50;3.80;;;2.20;;
51556;SDS011;38766;53.194;5.532;2023-07-29T09:37:16;2.50;;;1.90;;
51556;SDS011;38766;53.194;5.532;2023-07-29T09:39:46;6.03;;;2.17;;
51556;SDS011;38766;53.194;5.532;2023-07-29T09:42:20;3.65;;;1.98;;
51556;SDS011;38766;53.194;5.532;2023-07-29T09:44:48;4.22;;;2.05;;
51556;SDS011;38766;53.194;5.532;2023-07-29T09:47:24;4.22;;;1.90;;
51556;SDS011;38766;53.194;5.532;2023-07-29T09:49:50;5.35;;;1.92;;
51556;SDS011;38766;53.194;5.532;2023-07-29T09:52:17;4.82;;;2.28;;
51556;SDS011;38766;53.194;5.532;2023-07-29T09:54:44;6.82;;;2.40;;
51556;SDS011;38766;53.194;5.532;2023-07-29T09:57:14;5.13;;;2.47;;
51556;SDS011;38766;53.194;5.532;2023-07-29T09:59:41;6.40;;;2.47;;
51556;SDS011;38766;53.194;5.532;2023-07-29T10:02:14;6.07;;;2.33;;
51556;SDS011;38766;53.194;5.532;2023-07-29T10:04:41;4.32;;;1.92;;
51556;SDS011;38766;53.194;5.532;2023-07-29T10:07:09;4.65;;;2.00;;
51556;SDS011;38766;53.194;5.532;2023-07-29T10:09:36;6.88;;;2.00;;
51556;SDS011;38766;53.194;5.532;2023-07-29T10:12:03;7.15;;;2.38;;
51556;SDS011;38766;53.194;5.532;2023-07-29T10:14:31;6.38;;;2.13;;
51556;SDS011;38766;53.194;5.532;2023-07-29T10:16:57;5.68;;;2.30;;
51556;SDS011;38766;53.194;5.532;2023-07-29T10:19:25;6.50;;;2.42;;
51556;SDS011;38766;53.194;5.532;2023-07-29T10:21:51;7.72;;;2.30;;
51556;SDS011;38766;53.194;5.532;2023-07-29T10:24:21;5.45;;;2.30;;
51556;SDS011;38766;53.194;5.532;2023-07-29T10:26:54;7.68;;;2.53;;
51556;SDS011;38766;53.194;5.532;2023-07-29T10:29:28;9.10;;;2.58;;
51556;SDS011;38766;53.194;5.532;2023-07-29T10:32:02;6.60;;;2.20;;
51556;SDS011;38766;53.194;5.532;2023-07-29T10:34:29;8.35;;;2.33;;
51556;SDS011;38766;53.194;5.532;2023-07-29T10:36:56;4.57;;;1.95;;
51556;SDS011;38766;53.194;5.532;2023-07-29T10:39:24;3.95;;;1.52;;
51556;SDS011;38766;53.194;5.532;2023-07-29T10:41:54;2.53;;;1.42;;
51556;SDS011;38766;53.194;5.532;2023-07-29T10:49:42;4.97;;;1.55;;
51556;SDS011;38766;53.194;5.532;2023-07-29T10:52:12;5.82;;;2.10;;
51556;SDS011;38766;53.194;5.532;2023-07-29T10:54:45;5.25;;;2.00;;
51556;SDS011;38766;53.194;5.532;2023-07-29T10:57:13;4.80;;;2.10;;
51556;SDS011;38766;53.194;5.532;2023-07-29T10:59:40;6.38;;;2.05;;
51556;SDS011;38766;53.194;5.532;2023-07-29T11:02:15;3.47;;;1.88;;
51556;SDS011;38766;53.194;5.532;2023-07-29T11:04:50;3.65;;;1.95;;
51556;SDS011;38766;53.194;5.532;2023-07-29T11:09:45;6.28;;;1.85;;
51556;SDS011;38766;53.194;5.532;2023-07-29T11:15:15;4.20;;;1.95;;
51556;SDS011;38766;53.194;5.532;2023-07-29T11:17:52;8.70;;;2.60;;
51556;SDS011;38766;53.194;5.532;2023-07-29T11:20:20;4.25;;;2.20;;
51556;SDS011;38766;53.194;5.532;2023-07-29T11:22:47;4.03;;;2.20;;
51556;SDS011;38766;53.194;5.532;2023-07-29T11:25:14;3.35;;;1.83;;
51556;SDS011;38766;53.194;5.532;2023-07-29T11:27:40;3.67;;;1.85;;
51556;SDS011;38766;53.194;5.532;2023-07-29T11:30:08;4.10;;;1.80;;
51556;SDS011;38766;53.194;5.532;2023-07-29T11:32:35;3.75;;;2.10;;
51556;SDS011;38766;53.194;5.532;2023-07-29T11:35:02;3.58;;;2.17;;
51556;SDS011;38766;53.194;5.532;2023-07-29T11:37:29;6.95;;;2.42;;
51556;SDS011;38766;53.194;5.532;2023-07-29T11:39:55;6.38;;;2.20;;
51556;SDS011;38766;53.194;5.532;2023-07-29T11:42:20;5.43;;;2.35;;
51556;SDS011;38766;53.194;5.532;2023-07-29T11:44:46;4.85;;;2.10;;
51556;SDS011;38766;53.194;5.532;2023-07-29T11:47:12;4.68;;;2.28;;
51556;SDS011;38766;53.194;5.532;2023-07-29T11:49:38;5.07;;;2.17;;
51556;SDS011;38766;53.194;5.532;2023-07-29T11:52:08;8.05;;;2.50;;
51556;SDS011;38766;53.194;5.532;2023-07-29T11:54:35;5.65;;;2.22;;
51556;SDS011;38766;53.194;5.532;2023-07-29T11:57:08;5.18;;;2.45;;
51556;SDS011;38766;53.194;5.532;2023-07-29T11:59:35;6.78;;;2.70;;
51556;SDS011;38766;53.194;5.532;2023-07-29T12:02:02;11.65;;;2.63;;
51556;SDS011;38766;53.194;5.532;2023-07-29T12:04:33;6.70;;;2.65;;
51556;SDS011;38766;53.194;5.532;2023-07-29T12:06:59;5.00;;;2.22;;
51556;SDS011;38766;53.194;5.532;2023-07-29T12:09:26;7.03;;;2.70;;
51556;SDS011;38766;53.194;5.532;2023-07-29T12:11:53;5.65;;;2.38;;
51556;SDS011;38766;53.194;5.532;2023-07-29T12:14:19;6.10;;;2.40;;
51556;SDS011;38766;53.194;5.532;2023-07-29T12:16:48;3.08;;;2.05;;
51556;SDS011;38766;53.194;5.532;2023-07-29T12:19:14;11.02;;;2.65;;
51556;SDS011;38766;53.194;5.532;2023-07-29T12:21:41;6.55;;;2.85;;
51556;SDS011;38766;53.194;5.532;2023-07-29T12:24:07;5.32;;;2.70;;
51556;SDS011;38766;53.194;5.532;2023-07-29T12:26:33;7.78;;;2.75;;
51556;SDS011;38766;53.194;5.532;2023-07-29T12:29:10;4.45;;;2.30;;
51556;SDS011;38766;53.194;5.532;2023-07-29T12:31:37;5.28;;;2.90;;
51556;SDS011;38766;53.194;5.532;2023-07-29T12:34:03;5.40;;;2.53;;
51556;SDS011;38766;53.194;5.532;2023-07-29T12:36:45;8.90;;;2.58;;
51556;SDS011;38766;53.194;5.532;2023-07-29T12:39:16;5.70;;;2.60;;
51556;SDS011;38766;53.194;5.532;2023-07-29T12:41:42;8.90;;;2.78;;
51556;SDS011;38766;53.194;5.532;2023-07-29T12:44:08;7.90;;;2.58;;
51556;SDS011;38766;53.194;5.532;2023-07-29T12:46:34;9.80;;;2.78;;
51556;SDS011;38766;53.194;5.532;2023-07-29T12:48:59;5.00;;;2.50;;
51556;SDS011;38766;53.194;5.532;2023-07-29T12:51:25;4.47;;;2.63;;
51556;SDS011;38766;53.194;5.532;2023-07-29T12:53:51;7.53;;;2.47;;
51556;SDS011;38766;53.194;5.532;2023-07-29T12:56:17;6.07;;;2.42;;
51556;SDS011;38766;53.194;5.532;2023-07-29T12:58:42;6.65;;;2.58;;
51556;SDS011;38766;53.194;5.532;2023-07-29T13:01:08;5.30;;;2.25;;
51556;SDS011;38766;53.194;5.532;2023-07-29T13:03:34;8.60;;;2.75;;
51556;SDS011;38766;53.194;5.532;2023-07-29T13:06:00;6.00;;;2.72;;
51556;SDS011;38766;53.194;5.532;2023-07-29T13:08:25;6.20;;;3.03;;
51556;SDS011;38766;53.194;5.532;2023-07-29T13:10:51;7.63;;;2.70;;
51556;SDS011;38766;53.194;5.532;2023-07-29T13:13:17;8.32;;;2.70;;
51556;SDS011;38766;53.194;5.532;2023-07-29T13:15:43;6.30;;;2.97;;
51556;SDS011;38766;53.194;5.532;2023-07-29T13:18:08;5.00;;;2.35;;
51556;SDS011;38766;53.194;5.532;2023-07-29T13:20:34;7.90;;;2.90;;
51556;SDS011;38766;53.194;5.532;2023-07-29T13:22:59;8.95;;;2.95;;
51556;SDS011;38766;53.194;5.532;2023-07-29T13:25:25;6.57;;;2.70;;
51556;SDS011;38766;53.194;5.532;2023-07-29T13:27:51;5.90;;;2.75;;
51556;SDS011;38766;53.194;5.532;2023-07-29T13:30:16;6.63;;;3.20;;
51556;SDS011;38766;53.194;5.532;2023-07-29T13:32:42;6.88;;;2.80;;
51556;SDS011;38766;53.194;5.532;2023-07-29T13:35:08;8.23;;;3.22;;
51556;SDS011;38766;53.194;5.532;2023-07-29T13:37:33;9.93;;;3.25;;
51556;SDS011;38766;53.194;5.532;2023-07-29T13:39:59;6.63;;;2.50;;
51556;SDS011;38766;53.194;5.532;2023-07-29T13:42:24;7.13;;;2.50;;
51556;SDS011;38766;53.194;5.532;2023-07-29T13:44:50;6.88;;;2.70;;
51556;SDS011;38766;53.194;5.532;2023-07-29T13:47:16;9.07;;;2.70;;
51556;SDS011;38766;53.194;5.532;2023-07-29T13:49:41;6.97;;;2.60;;
51556;SDS011;38766;53.194;5.532;2023-07-29T13:52:07;12.40;;;2.95;;
51556;SDS011;38766;53.194;5.532;2023-07-29T13:54:33;8.30;;;2.65;;
51556;SDS011;38766;53.194;5.532;2023-07-29T13:56:58;6.30;;;2.70;;
51556;SDS011;38766;53.194;5.532;2023-07-29T13:59:24;6.78;;;2.67;;
51556;SDS011;38766;53.194;5.532;2023-07-29T14:01:50;6.55;;;2.60;;
51556;SDS011;38766;53.194;5.532;2023-07-29T14:04:15;7.10;;;2.65;;
51556;SDS011;38766;53.194;5.532;2023-07-29T14:06:41;5.30;;;2.63;;
51556;SDS011;38766;53.194;5.532;2023-07-29T14:09:06;5.90;;;2.67;;
51556;SDS011;38766;53.194;5.532;2023-07-29T14:11:32;6.80;;;2.65;;
51556;SDS011;38766;53.194;5.532;2023-07-29T14:13:58;7.28;;;2.72;;
51556;SDS011;38766;53.194;5.532;2023-07-29T14:16:24;6.63;;;2.35;;
51556;SDS011;38766;53.194;5.532;2023-07-29T14:18:49;6.18;;;2.60;;
51556;SDS011;38766;53.194;5.532;2023-07-29T14:21:15;6.38;;;2.33;;
51556;SDS011;38766;53.194;5.532;2023-07-29T14:23:40;8.00;;;2.63;;
51556;SDS011;38766;53.194;5.532;2023-07-29T14:26:06;4.80;;;2.53;;
51556;SDS011;38766;53.194;5.532;2023-07-29T14:28:34;6.75;;;2.90;;
51556;SDS011;38766;53.194;5.532;2023-07-29T14:31:01;7.20;;;2.40;;
51556;SDS011;38766;53.194;5.532;2023-07-29T14:33:26;8.23;;;2.67;;
51556;SDS011;38766;53.194;5.532;2023-07-29T14:35:52;5.85;;;2.67;;
51556;SDS011;38766;53.194;5.532;2023-07-29T14:38:18;6.75;;;2.40;;
51556;SDS011;38766;53.194;5.532;2023-07-29T14:40:47;5.50;;;2.63;;
51556;SDS011;38766;53.194;5.532;2023-07-29T14:43:13;4.45;;;2.40;;
51556;SDS011;38766;53.194;5.532;2023-07-29T14:45:38;4.35;;;2.20;;
51556;SDS011;38766;53.194;5.532;2023-07-29T14:48:04;5.13;;;2.30;;
51556;SDS011;38766;53.194;5.532;2023-07-29T14:50:30;4.53;;;2.30;;
51556;SDS011;38766;53.194;5.532;2023-07-29T14:52:55;4.53;;;2.20;;
51556;SDS011;38766;53.194;5.532;2023-07-29T14:55:21;3.83;;;2.30;;
51556;SDS011;38766;53.194;5.532;2023-07-29T14:57:47;4.30;;;2.38;;